Time;durP1;ratioP1;P1;durP2;ratioP2;P2;SDS_P1;SDS_P2;PMS_P1;PMS_P2;Temp;Humidity;BMP_temperature;BMP_pressure;BME280_temperature;BME280_humidity;BME280_pressure;Samples;Min_cycle;Max_cycle;Signal;HPM_P1;HPM_P2
2023/03/13 00:01:30;;;;;;;26.17;7.15;;;;;;;8.61;100.00;100083.44;4886029;29;20032;-86
2023/03/13 00:03:56;;;;;;;20.83;6.30;;;;;;;8.58;100.00;100068.28;4885553;29;20108;-84
2023/03/13 00:06:23;;;;;;;24.85;6.55;;;;;;;8.60;100.00;100065.91;4876491;29;22091;-87
2023/03/13 00:08:48;;;;;;;32.70;7.13;;;;;;;8.56;100.00;100065.06;4889099;29;20473;-84
2023/03/13 00:11:14;;;;;;;32.67;7.75;;;;;;;8.53;100.00;100054.66;4887444;29;20032;-84
2023/03/13 00:13:40;;;;;;;23.60;5.53;;;;;;;8.54;100.00;100050.69;4896484;29;20088;-84
2023/03/13 00:16:11;;;;;;;29.15;7.35;;;;;;;8.53;100.00;100037.91;4877474;29;20127;-86
2023/03/13 00:18:37;;;;;;;30.88;6.55;;;;;;;8.57;100.00;100043.53;4892231;29;20029;-86
2023/03/13 00:21:08;;;;;;;20.05;5.88;;;;;;;8.57;100.00;100032.38;4878810;29;20040;-86
2023/03/13 00:23:35;;;;;;;31.30;6.85;;;;;;;8.50;100.00;100027.53;4874857;29;20024;-86
2023/03/13 00:26:10;;;;;;;25.90;6.10;;;;;;;8.41;100.00;100010.31;4881755;29;20551;-86
2023/03/13 00:28:37;;;;;;;23.20;5.97;;;;;;;8.47;100.00;100012.34;4876329;29;20503;-86
2023/03/13 00:31:14;;;;;;;30.00;6.97;;;;;;;8.48;100.00;100013.19;4878822;29;20108;-86
2023/03/13 00:33:42;;;;;;;24.48;7.25;;;;;;;8.44;100.00;99985.25;4892615;29;20032;-86
2023/03/13 00:36:12;;;;;;;37.70;5.93;;;;;;;8.52;100.00;99986.13;4875462;29;20036;-86
2023/03/13 00:38:37;;;;;;;26.85;6.55;;;;;;;8.45;100.00;99978.47;4882271;29;20152;-86
2023/03/13 00:41:14;;;;;;;25.17;6.40;;;;;;;8.48;100.00;99974.13;4883099;29;20557;-86
2023/03/13 00:43:41;;;;;;;39.03;9.13;;;;;;;8.48;100.00;99963.78;4893013;29;20052;-86
2023/03/13 00:46:07;;;;;;;33.75;6.95;;;;;;;8.42;100.00;99967.31;4876439;29;20032;-85
2023/03/13 00:48:33;;;;;;;39.28;7.18;;;;;;;8.39;100.00;99956.88;4896614;29;20127;-86
2023/03/13 00:50:59;;;;;;;30.02;8.07;;;;;;;8.38;100.00;99952.50;4895438;29;20128;-86
2023/03/13 00:53:24;;;;;;;33.88;7.05;;;;;;;8.37;100.00;99940.56;4877987;29;20029;-86
2023/03/13 00:56:02;;;;;;;36.88;8.18;;;;;;;8.35;100.00;99932.56;4892656;29;20500;-86
2023/03/13 00:58:30;;;;;;;30.08;7.07;;;;;;;8.29;100.00;99922.97;4884967;29;20037;-86
2023/03/13 01:00:56;;;;;;;48.17;7.80;;;;;;;8.33;100.00;99923.00;4891380;29;20032;-86
2023/03/13 01:03:26;;;;;;;24.20;6.50;;;;;;;8.28;100.00;99915.75;4886231;29;20071;-85
2023/03/13 01:05:57;;;;;;;28.25;6.30;;;;;;;8.31;100.00;99909.44;4891646;29;20135;-86
2023/03/13 01:08:22;;;;;;;36.63;7.03;;;;;;;8.22;100.00;99891.41;4882923;29;20025;-86
2023/03/13 01:10:48;;;;;;;25.60;6.40;;;;;;;8.22;100.00;99889.47;4880263;29;20040;-86
2023/03/13 01:13:13;;;;;;;28.63;6.28;;;;;;;8.22;100.00;99878.31;4890561;29;20108;-86
2023/03/13 01:15:39;;;;;;;39.15;7.07;;;;;;;8.26;100.00;99879.09;4879424;29;20087;-86
2023/03/13 01:18:04;;;;;;;20.75;6.18;;;;;;;8.16;100.00;99868.69;4874203;29;20033;-86
2023/03/13 01:20:29;;;;;;;32.45;7.65;;;;;;;8.19;100.00;99865.13;4883164;29;20034;-86
2023/03/13 01:22:55;;;;;;;28.33;7.53;;;;;;;8.11;100.00;99863.47;4897867;29;20393;-85
2023/03/13 01:25:20;;;;;;;34.38;9.13;;;;;;;8.15;100.00;99853.16;4895037;29;20115;-85
2023/03/13 01:27:46;;;;;;;30.00;8.52;;;;;;;8.13;100.00;99836.00;4893643;29;20036;-85
2023/03/13 01:30:11;;;;;;;22.70;6.00;;;;;;;8.13;100.00;99839.59;4886890;29;20035;-85
2023/03/13 01:32:37;;;;;;;28.02;7.55;;;;;;;8.13;100.00;99824.84;4896697;29;20020;-85
2023/03/13 01:35:02;;;;;;;48.30;10.55;;;;;;;8.13;100.00;99820.06;4884485;29;20035;-85
2023/03/13 01:37:28;;;;;;;35.97;8.23;;;;;;;8.13;100.00;99824.84;4887546;29;20044;-85
2023/03/13 01:39:53;;;;;;;41.67;7.88;;;;;;;8.08;100.00;99809.31;4890471;29;20485;-85
2023/03/13 01:42:18;;;;;;;38.22;8.52;;;;;;;8.05;100.00;99804.50;4892847;29;20043;-85
2023/03/13 01:44:53;;;;;;;23.70;7.68;;;;;;;7.96;100.00;99798.47;4893313;29;20077;-85
2023/03/13 01:47:18;;;;;;;25.27;8.20;;;;;;;8.07;100.00;99788.19;4889119;29;20036;-85
2023/03/13 01:49:44;;;;;;;28.52;7.95;;;;;;;7.98;100.00;99770.22;4896063;29;20079;-85
2023/03/13 01:52:25;;;;;;;27.98;6.10;;;;;;;8.06;100.00;99777.44;4875485;29;20034;-86
2023/03/13 01:55:02;;;;;;;27.65;6.82;;;;;;;8.06;100.00;99774.66;4890108;29;20037;-85
2023/03/13 01:57:36;;;;;;;26.15;7.93;;;;;;;8.05;100.00;99750.75;4886721;29;20042;-85
2023/03/13 02:00:06;;;;;;;28.17;7.45;;;;;;;8.10;100.00;99739.25;4878030;29;20032;-86
2023/03/13 02:02:33;;;;;;;26.60;7.30;;;;;;;8.05;100.00;99728.44;4885994;29;20125;-85
2023/03/13 02:05:01;;;;;;;18.77;6.65;;;;;;;7.99;100.00;99722.47;4891210;29;20039;-85
2023/03/13 02:07:32;;;;;;;25.00;6.50;;;;;;;8.08;100.00;99717.34;4877472;29;20468;-85
2023/03/13 02:09:57;;;;;;;28.38;7.95;;;;;;;8.07;100.00;99712.13;4875891;29;20036;-85
2023/03/13 02:12:31;;;;;;;22.10;7.65;;;;;;;8.08;100.00;99702.59;4891938;29;20028;-85
2023/03/13 02:14:59;;;;;;;29.27;6.82;;;;;;;8.09;100.00;99690.25;4876649;29;20454;-85
2023/03/13 02:17:25;;;;;;;17.92;6.60;;;;;;;8.06;100.00;99685.47;4875434;29;20036;-85
2023/03/13 02:19:51;;;;;;;23.60;6.72;;;;;;;8.06;100.00;99674.31;4876796;29;20029;-85
2023/03/13 02:22:26;;;;;;;20.98;6.35;;;;;;;8.10;100.00;99683.50;4889541;29;20430;-85
2023/03/13 02:25:21;;;;;;;21.02;8.07;;;;;;;8.20;100.00;99652.09;4877462;29;20127;-85
2023/03/13 02:27:47;;;;;;;18.08;7.57;;;;;;;8.15;100.00;99661.59;4874053;29;20047;-85
2023/03/13 02:30:14;;;;;;;22.70;6.78;;;;;;;8.20;100.00;99652.09;4894913;29;20091;-85
2023/03/13 02:32:40;;;;;;;16.27;6.93;;;;;;;8.27;100.00;99649.31;4896107;29;20066;-86
2023/03/13 02:35:09;;;;;;;16.52;6.43;;;;;;;8.31;100.00;99636.19;4875444;29;20175;-85
2023/03/13 02:37:35;;;;;;;16.92;5.75;;;;;;;8.31;100.00;99630.63;4888258;29;20029;-85
2023/03/13 02:40:05;;;;;;;22.65;7.13;;;;;;;8.43;100.00;99632.31;4874766;29;20540;-84
2023/03/13 02:42:32;;;;;;;14.45;4.40;;;;;;;8.37;100.00;99622.69;4878724;29;20283;-85
2023/03/13 02:44:57;;;;;;;18.92;6.18;;;;;;;8.45;100.00;99617.94;4876586;29;20027;-85
2023/03/13 02:47:24;;;;;;;11.70;4.45;;;;;;;8.44;100.00;99610.78;4874948;29;20055;-85
2023/03/13 02:49:50;;;;;;;14.93;5.07;;;;;;;8.59;100.00;99612.41;4882691;29;20047;-85
2023/03/13 02:52:37;;;;;;;12.25;5.13;;;;;;;8.47;100.00;99602.41;4890197;29;20386;-85
2023/03/13 02:55:16;;;;;;;11.27;5.03;;;;;;;8.55;100.00;99584.50;4879189;29;20031;-85
2023/03/13 02:57:42;;;;;;;18.77;5.10;;;;;;;8.68;100.00;99587.69;4890264;29;20021;-84
2023/03/13 03:00:11;;;;;;;10.35;4.78;;;;;;;8.60;100.00;99580.53;4878828;29;20043;-84
2023/03/13 03:02:37;;;;;;;13.65;4.88;;;;;;;8.70;100.00;99568.56;4870676;29;20741;-84
2023/03/13 03:05:04;;;;;;;9.48;4.95;;;;;;;8.77;100.00;99565.03;4873051;29;20053;-84
2023/03/13 03:07:30;;;;;;;7.80;4.57;;;;;;;8.93;100.00;99553.44;4893235;29;20040;-85
2023/03/13 03:09:55;;;;;;;10.52;4.57;;;;;;;8.82;100.00;99558.25;4875973;29;20055;-85
2023/03/13 03:12:21;;;;;;;10.30;5.75;;;;;;;8.99;100.00;99563.00;4877744;29;20123;-85
2023/03/13 03:14:46;;;;;;;11.43;5.60;;;;;;;8.94;100.00;99549.47;4893187;29;20051;-85
2023/03/13 03:17:12;;;;;;;7.63;3.95;;;;;;;8.97;100.00;99559.81;4891148;29;20037;-85
2023/03/13 03:19:37;;;;;;;11.77;5.20;;;;;;;8.92;100.00;99547.06;4894160;29;20027;-85
2023/03/13 03:22:02;;;;;;;11.48;4.90;;;;;;;9.09;100.00;99545.47;4877841;29;20088;-85
2023/03/13 03:24:28;;;;;;;12.02;4.10;;;;;;;9.05;100.00;99541.88;4895150;29;20064;-86
2023/03/13 03:26:53;;;;;;;6.38;4.00;;;;;;;9.06;100.00;99540.66;4893342;29;20032;-84
2023/03/13 03:29:19;;;;;;;7.80;4.28;;;;;;;9.27;100.00;99539.06;4867631;29;20079;-84
2023/03/13 03:31:44;;;;;;;6.18;4.00;;;;;;;8.99;100.00;99539.91;4888808;29;20029;-85
2023/03/13 03:34:10;;;;;;;11.43;5.10;;;;;;;9.31;100.00;99545.44;4889906;29;20040;-85
2023/03/13 03:36:35;;;;;;;9.30;4.25;;;;;;;9.14;100.00;99547.06;4899903;29;20037;-85
2023/03/13 03:39:00;;;;;;;9.93;4.78;;;;;;;9.30;100.00;99541.06;4879391;29;20044;-85
2023/03/13 03:41:26;;;;;;;11.35;5.40;;;;;;;9.32;100.00;99531.06;4876347;29;20497;-85
2023/03/13 03:43:51;;;;;;;9.02;4.82;;;;;;;9.23;100.00;99539.03;4877980;29;20063;-85
2023/03/13 03:46:16;;;;;;;8.95;4.97;;;;;;;9.27;100.00;99533.47;4895619;29;20036;-85
2023/03/13 03:48:42;;;;;;;10.25;4.50;;;;;;;9.24;100.00;99531.50;4895607;29;20147;-85
2023/03/13 03:51:08;;;;;;;10.27;4.65;;;;;;;9.30;100.00;99538.25;4874489;29;20037;-85
2023/03/13 03:53:33;;;;;;;9.43;5.15;;;;;;;9.36;100.00;99528.28;4883520;29;20020;-85
2023/03/13 03:56:00;;;;;;;7.47;4.82;;;;;;;9.43;100.00;99530.25;4888100;29;20039;-85
2023/03/13 03:58:26;;;;;;;11.52;5.72;;;;;;;9.49;100.00;99529.44;4879447;29;20067;-85
2023/03/13 04:00:51;;;;;;;12.82;5.28;;;;;;;9.54;100.00;99545.75;4897060;29;20115;-84
2023/03/13 04:03:16;;;;;;;9.85;5.70;;;;;;;9.48;100.00;99535.41;4902519;29;20048;-85
2023/03/13 04:05:42;;;;;;;13.43;6.20;;;;;;;9.53;100.00;99530.22;4879043;29;20047;-85
2023/03/13 04:08:08;;;;;;;8.05;5.55;;;;;;;9.52;100.00;99530.63;4897285;29;20442;-84
2023/03/13 04:10:34;;;;;;;14.32;6.85;;;;;;;9.77;100.00;99533.31;4880579;29;20037;-85
2023/03/13 04:12:59;;;;;;;16.60;7.13;;;;;;;9.60;100.00;99528.59;4875710;29;20050;-85
2023/03/13 04:15:25;;;;;;;12.65;8.10;;;;;;;9.69;100.00;99521.38;4880625;29;20036;-85
2023/03/13 04:17:50;;;;;;;13.20;6.85;;;;;;;9.55;100.00;99510.28;4881726;29;20040;-85
2023/03/13 04:20:16;;;;;;;13.05;7.13;;;;;;;9.62;100.00;99512.25;4882247;29;20092;-85
2023/03/13 04:22:42;;;;;;;18.98;9.18;;;;;;;9.87;100.00;99504.53;4880912;29;20043;-85
2023/03/13 04:25:08;;;;;;;17.08;8.25;;;;;;;9.80;100.00;99493.38;4891760;29;20134;-85
2023/03/13 04:27:34;;;;;;;20.08;8.23;;;;;;;9.69;100.00;99493.44;4880499;29;20512;-85
2023/03/13 04:29:59;;;;;;;18.70;9.18;;;;;;;9.89;100.00;99504.94;4882384;29;20025;-85
2023/03/13 04:32:25;;;;;;;18.50;9.90;;;;;;;10.01;100.00;99486.88;4894279;29;20050;-86
2023/03/13 04:34:51;;;;;;;17.17;7.78;;;;;;;9.76;100.00;99487.81;4894865;29;20039;-85
2023/03/13 04:37:16;;;;;;;17.15;9.68;;;;;;;9.83;100.00;99469.44;4881885;29;20119;-85
2023/03/13 04:39:42;;;;;;;20.15;9.52;;;;;;;10.12;100.00;99482.03;4890221;29;20036;-85
2023/03/13 04:42:09;;;;;;;19.58;8.85;;;;;;;10.15;100.00;99488.81;4894627;29;20029;-85
2023/03/13 04:44:35;;;;;;;16.95;9.90;;;;;;;10.20;100.00;99471.59;4879267;29;20080;-85
2023/03/13 04:47:00;;;;;;;18.50;9.00;;;;;;;10.13;100.00;99469.63;4880647;29;20032;-85
2023/03/13 04:49:26;;;;;;;18.15;9.13;;;;;;;10.22;100.00;99466.38;4876933;29;20032;-85
2023/03/13 04:51:51;;;;;;;28.48;11.35;;;;;;;10.26;100.00;99464.34;4891814;29;20028;-85
2023/03/13 04:54:16;;;;;;;24.17;10.70;;;;;;;10.28;100.00;99456.34;4879265;29;20127;-85
2023/03/13 04:56:42;;;;;;;20.10;9.63;;;;;;;10.24;100.00;99449.97;4877949;29;20489;-86
2023/03/13 04:59:08;;;;;;;15.73;8.10;;;;;;;10.29;100.00;99445.97;4878996;29;20044;-85
2023/03/13 05:01:34;;;;;;;23.92;9.43;;;;;;;10.21;100.00;99445.22;4876560;29;20033;-85
2023/03/13 05:03:59;;;;;;;18.92;8.93;;;;;;;10.32;100.00;99437.56;4894682;29;20052;-85
2023/03/13 05:06:25;;;;;;;19.23;8.77;;;;;;;10.23;100.00;99437.22;4880222;29;20577;-85
2023/03/13 05:08:50;;;;;;;16.85;9.02;;;;;;;10.28;100.00;99433.19;4895391;29;20036;-85
2023/03/13 05:11:15;;;;;;;19.45;10.00;;;;;;;10.51;100.00;99433.44;4879896;29;20484;-85
2023/03/13 05:13:41;;;;;;;18.52;9.38;;;;;;;10.48;100.00;99430.69;4887742;29;20026;-86
2023/03/13 05:16:06;;;;;;;17.30;9.25;;;;;;;10.41;100.00;99436.31;4882137;29;20504;-85
2023/03/13 05:18:32;;;;;;;17.92;9.38;;;;;;;10.57;100.00;99417.78;4882567;29;20125;-85
2023/03/13 05:20:57;;;;;;;17.60;8.20;;;;;;;10.42;100.00;99412.75;4895114;29;20369;-86
2023/03/13 05:23:23;;;;;;;15.43;8.13;;;;;;;10.34;100.00;99423.19;4877632;29;20564;-86
2023/03/13 05:25:48;;;;;;;15.07;8.52;;;;;;;10.65;100.00;99426.13;4876524;29;20501;-85
2023/03/13 05:28:14;;;;;;;20.08;8.35;;;;;;;10.60;100.00;99410.56;4869057;29;20785;-85
2023/03/13 05:30:39;;;;;;;23.38;9.85;;;;;;;10.64;100.00;99411.31;4874464;29;20049;-86
2023/03/13 05:33:04;;;;;;;16.40;8.60;;;;;;;10.63;100.00;99415.34;4869817;29;20115;-85
2023/03/13 05:35:30;;;;;;;18.15;9.40;;;;;;;10.69;100.00;99418.47;4875921;29;20032;-86
2023/03/13 05:37:55;;;;;;;18.65;9.80;;;;;;;10.66;100.00;99408.91;4889972;29;20028;-85
2023/03/13 05:40:20;;;;;;;15.68;8.43;;;;;;;10.56;100.00;99416.22;4884593;29;20124;-86
2023/03/13 05:42:46;;;;;;;14.88;8.10;;;;;;;10.50;100.00;99408.69;4900586;29;21057;-86
2023/03/13 05:45:11;;;;;;;14.70;8.90;;;;;;;10.81;100.00;99414.38;4875358;29;20032;-85
2023/03/13 05:47:38;;;;;;;16.50;8.15;;;;;;;10.58;100.00;99407.38;4893628;29;20035;-86
2023/03/13 05:50:05;;;;;;;23.70;9.60;;;;;;;10.80;100.00;99418.38;4881638;29;20529;-86
2023/03/13 05:52:31;;;;;;;19.58;9.20;;;;;;;10.86;100.00;99416.72;4890943;29;20496;-85
2023/03/13 05:54:57;;;;;;;16.70;8.60;;;;;;;10.77;100.00;99408.81;4886244;29;20476;-86
2023/03/13 05:57:22;;;;;;;15.73;8.23;;;;;;;10.85;100.00;99401.91;4890469;29;20120;-86
2023/03/13 05:59:48;;;;;;;15.57;8.63;;;;;;;10.88;100.00;99403.09;4879054;29;20044;-85
2023/03/13 06:02:13;;;;;;;17.40;9.63;;;;;;;10.83;100.00;99414.75;4874262;29;20435;-86
2023/03/13 06:04:38;;;;;;;19.17;7.70;;;;;;;11.01;100.00;99390.16;4862188;29;20033;-85
2023/03/13 06:07:04;;;;;;;17.13;6.72;;;;;;;11.22;100.00;99408.72;4877572;29;20501;-86
2023/03/13 06:09:29;;;;;;;19.77;7.28;;;;;;;11.12;100.00;99402.03;4854152;29;20085;-86
2023/03/13 06:11:54;;;;;;;12.80;7.32;;;;;;;11.06;100.00;99391.72;4857333;29;20677;-86
2023/03/13 06:14:20;;;;;;;22.95;6.30;;;;;;;10.99;100.00;99387.00;4854570;29;20089;-86
2023/03/13 06:16:46;;;;;;;14.98;6.70;;;;;;;10.93;100.00;99389.44;4855766;29;20029;-86
2023/03/13 06:19:11;;;;;;;19.75;6.03;;;;;;;11.21;100.00;99398.72;4860673;29;20028;-86
2023/03/13 06:21:37;;;;;;;11.77;6.38;;;;;;;10.86;100.00;99374.75;4860896;29;20422;-86
2023/03/13 06:24:03;;;;;;;17.27;6.57;;;;;;;10.95;100.00;99375.03;4853622;29;20496;-86
2023/03/13 06:26:28;;;;;;;20.08;6.72;;;;;;;11.05;100.00;99367.72;4853744;29;20025;-86
2023/03/13 06:28:54;;;;;;;15.55;6.25;;;;;;;11.18;100.00;99372.34;4868853;29;20033;-86
2023/03/13 06:31:19;;;;;;;20.70;5.75;;;;;;;11.22;100.00;99368.72;4851259;29;20740;-85
2023/03/13 06:33:44;;;;;;;13.52;6.10;;;;;;;11.11;100.00;99375.25;4853497;29;20023;-86
2023/03/13 06:36:10;;;;;;;14.63;6.82;;;;;;;11.35;100.00;99380.97;4866358;29;20029;-86
2023/03/13 06:38:35;;;;;;;13.20;6.72;;;;;;;11.30;100.00;99371.00;4857260;29;20033;-87
2023/03/13 06:41:01;;;;;;;11.18;6.13;;;;;;;11.24;100.00;99363.50;4874686;29;20040;-87
2023/03/13 06:43:26;;;;;;;10.05;5.63;;;;;;;11.25;100.00;99363.06;4856780;29;20071;-86
2023/03/13 06:45:52;;;;;;;22.85;5.68;;;;;;;11.45;100.00;99359.59;4853010;29;20561;-86
2023/03/13 06:48:18;;;;;;;9.00;4.90;;;;;;;11.36;100.00;99379.72;4853101;29;20480;-86
2023/03/13 06:50:44;;;;;;;17.48;6.05;;;;;;;11.44;100.00;99364.41;4854499;29;20037;-86
2023/03/13 06:53:19;;;;;;;12.13;5.10;;;;;;;11.33;100.00;99360.97;4869765;29;20041;-86
2023/03/13 06:55:45;;;;;;;12.18;4.97;;;;;;;11.43;100.00;99359.25;4869407;29;20467;-87
2023/03/13 06:58:11;;;;;;;14.20;5.63;;;;;;;11.42;100.00;99354.84;4848553;29;20093;-87
2023/03/13 07:00:38;;;;;;;25.90;5.45;;;;;;;11.27;100.00;99366.25;4856376;29;20036;-87
2023/03/13 07:03:04;;;;;;;12.57;4.45;;;;;;;11.59;100.00;99377.03;4861277;29;20043;-85
2023/03/13 07:05:29;;;;;;;12.30;4.25;;;;;;;11.59;100.00;99360.22;4887470;29;20044;-84
2023/03/13 07:07:55;;;;;;;13.48;3.67;;;;;;;12.21;100.00;99360.09;4888850;29;20498;-85
2023/03/13 07:10:20;;;;;;;14.70;4.22;;;;;;;11.73;100.00;99375.25;4878539;29;20043;-87
2023/03/13 07:12:46;;;;;;;13.00;4.95;;;;;;;11.68;100.00;99348.47;4896359;29;20033;-87
2023/03/13 07:15:11;;;;;;;14.23;4.72;;;;;;;11.54;100.00;99366.28;4875506;29;20180;-88
2023/03/13 07:17:36;;;;;;;13.93;4.60;;;;;;;11.63;100.00;99374.16;4890088;29;20484;-87
2023/03/13 07:20:09;;;;;;;13.40;4.03;;;;;;;11.68;100.00;99376.50;4874524;29;20104;-87
2023/03/13 07:22:34;;;;;;;;;;;;;;;11.73;100.00;99369.63;4882630;29;20036;-87
2023/03/13 07:25:00;;;;;;;13.32;4.47;;;;;;;11.73;100.00;99372.44;4880328;29;19919;-88
2023/03/13 07:27:25;;;;;;;10.63;4.43;;;;;;;11.86;100.00;99367.03;4892462;29;20535;-87
2023/03/13 07:29:51;;;;;;;10.07;4.05;;;;;;;11.67;100.00;99368.50;4896913;29;20025;-87
2023/03/13 07:32:16;;;;;;;13.18;3.65;;;;;;;11.82;100.00;99366.28;4884013;29;20073;-88
2023/03/13 07:34:43;;;;;;;8.77;3.67;;;;;;;11.71;100.00;99369.25;4891471;29;20039;-87
2023/03/13 07:37:13;;;;;;;8.43;4.60;;;;;;;11.67;100.00;99368.50;4883676;29;20113;-88
2023/03/13 07:39:39;;;;;;;10.63;4.32;;;;;;;11.55;100.00;99361.47;4880623;29;20024;-88
2023/03/13 07:42:06;;;;;;;14.48;4.70;;;;;;;11.71;100.00;99372.06;4883868;29;20028;-88
2023/03/13 07:44:31;;;;;;;8.85;3.97;;;;;;;11.65;100.00;99382.94;4892790;29;20100;-88
2023/03/13 07:47:00;;;;;;;9.35;4.20;;;;;;;11.50;100.00;99385.16;4897617;29;20111;-88
2023/03/13 07:49:26;;;;;;;9.32;3.63;;;;;;;11.65;100.00;99382.16;4893494;29;20195;-89
2023/03/13 07:51:51;;;;;;;9.73;4.63;;;;;;;11.70;100.00;99390.09;4879617;29;20177;-88
2023/03/13 07:54:17;;;;;;;13.23;3.67;;;;;;;11.58;100.00;99399.88;4895054;29;20039;-88
2023/03/13 07:56:42;;;;;;;7.28;3.95;;;;;;;11.42;100.00;99380.06;4877514;29;20056;-87
2023/03/13 07:59:08;;;;;;;7.97;3.92;;;;;;;11.41;100.00;99384.88;4878299;29;20037;-87
2023/03/13 08:01:33;;;;;;;10.70;4.45;;;;;;;11.40;100.00;99372.06;4880187;29;20035;-88
2023/03/13 08:04:02;;;;;;;7.32;4.00;;;;;;;11.53;100.00;99389.94;4872641;29;20438;-88
2023/03/13 08:06:30;;;;;;;8.20;3.80;;;;;;;11.42;100.00;99380.84;4890440;29;20041;-89
2023/03/13 08:08:57;;;;;;;6.97;3.45;;;;;;;11.49;100.00;99380.78;4877358;29;20516;-88
2023/03/13 08:11:25;;;;;;;11.13;3.53;;;;;;;11.58;100.00;99381.03;4892626;29;20035;-88
2023/03/13 08:13:51;;;;;;;11.80;4.15;;;;;;;11.50;100.00;99371.13;4881098;29;20111;-87
2023/03/13 08:16:19;;;;;;;9.65;3.70;;;;;;;11.50;100.00;99385.16;4875486;29;20442;-87
2023/03/13 08:18:47;;;;;;;9.15;3.22;;;;;;;11.58;100.00;99383.84;4882035;29;20103;-87
2023/03/13 08:21:19;;;;;;;8.65;3.30;;;;;;;11.58;100.00;99395.06;4881574;29;20072;-86
2023/03/13 08:23:45;;;;;;;6.95;3.13;;;;;;;11.49;100.00;99377.97;4896546;29;20024;-88
2023/03/13 08:26:15;;;;;;;7.10;3.80;;;;;;;11.58;100.00;99383.84;4877858;29;20036;-87
2023/03/13 08:28:42;;;;;;;6.60;3.60;;;;;;;11.67;100.00;99388.91;4880407;29;20379;-87
2023/03/13 08:31:19;;;;;;;6.45;3.28;;;;;;;11.65;100.00;99399.75;4881837;29;20036;-86
2023/03/13 08:33:46;;;;;;;8.60;3.60;;;;;;;11.73;100.00;99372.44;4879251;29;20486;-86
2023/03/13 08:36:22;;;;;;;6.47;3.58;;;;;;;11.66;100.00;99387.34;4880686;29;20118;-86
2023/03/13 08:38:48;;;;;;;7.13;3.40;;;;;;;11.75;100.00;99378.41;4888677;29;20119;-86
2023/03/13 08:41:22;;;;;;;6.88;3.22;;;;;;;11.86;100.00;99353.81;4881533;29;20327;-86
2023/03/13 08:43:48;;;;;;;6.15;3.13;;;;;;;11.95;100.00;99340.09;4892129;29;20120;-86
2023/03/13 08:46:14;;;;;;;8.57;3.65;;;;;;;11.93;100.00;99331.31;4880525;29;20025;-86
2023/03/13 08:48:40;;;;;;;11.88;3.22;;;;;;;12.06;100.00;99333.50;4897164;29;20037;-86
2023/03/13 08:51:09;;;;;;;10.55;3.97;;;;;;;12.00;100.00;99370.44;4886231;29;20028;-86
2023/03/13 08:53:36;;;;;;;10.77;3.63;;;;;;;12.17;100.00;99356.56;4893859;29;20043;-86
2023/03/13 08:56:03;;;;;;;9.38;3.13;;;;;;;12.01;100.00;99340.38;4878719;29;20039;-87
2023/03/13 08:58:29;;;;;;;12.35;3.28;;;;;;;12.14;100.00;99337.78;4877018;29;20054;-87
2023/03/13 09:01:02;;;;;;;7.50;3.38;;;;;;;12.13;100.00;99325.75;4878807;29;20084;-87
2023/03/13 09:03:27;;;;;;;10.77;3.60;;;;;;;12.25;100.00;99326.38;4880533;29;20041;-87
2023/03/13 09:05:59;;;;;;;4.68;2.70;;;;;;;12.08;100.00;99331.06;4883224;29;20037;-87
2023/03/13 09:08:25;;;;;;;6.70;2.75;;;;;;;12.19;100.00;99334.50;4898115;29;20501;-86
2023/03/13 09:11:01;;;;;;;7.10;2.58;;;;;;;12.15;100.00;99330.97;4896342;29;20561;-85
2023/03/13 09:13:28;;;;;;;6.70;2.50;;;;;;;12.22;100.00;99336.44;4897123;29;20053;-86
2023/03/13 09:15:58;;;;;;;8.23;3.33;;;;;;;12.08;100.00;99326.25;4882832;29;20040;-87
2023/03/13 09:18:24;;;;;;;8.07;2.50;;;;;;;12.20;100.00;99350.09;4880781;29;20489;-87
2023/03/13 09:20:50;;;;;;;6.63;2.03;;;;;;;12.16;100.00;99324.13;4895536;29;20485;-87
2023/03/13 09:23:17;;;;;;;8.40;2.80;;;;;;;12.19;100.00;99370.97;4881920;29;20028;-85
2023/03/13 09:25:43;;;;;;;9.57;2.65;;;;;;;12.10;100.00;99335.03;4893658;29;20115;-87
2023/03/13 09:28:08;;;;;;;6.85;2.30;;;;;;;12.16;100.00;99327.72;4892088;29;20052;-86
2023/03/13 09:30:37;;;;;;;10.60;2.53;;;;;;;12.12;100.00;99331.78;4896081;29;20499;-86
2023/03/13 09:33:02;;;;;;;4.60;2.00;;;;;;;12.22;100.00;99330.81;4881667;29;20033;-87
2023/03/13 09:35:28;;;;;;;6.75;2.50;;;;;;;12.10;100.00;99323.81;4881008;29;20029;-88
2023/03/13 09:37:54;;;;;;;5.65;2.60;;;;;;;12.18;100.00;99324.47;4894410;29;20505;-87
2023/03/13 09:40:22;;;;;;;7.95;2.38;;;;;;;12.03;100.00;99309.13;4885139;29;20078;-86
2023/03/13 09:42:57;;;;;;;6.43;3.00;;;;;;;12.19;100.00;99295.22;4881131;29;20071;-88
2023/03/13 09:45:33;;;;;;;12.65;3.03;;;;;;;12.22;100.00;99311.19;4872925;29;20032;-87
2023/03/13 09:48:07;;;;;;;5.25;2.63;;;;;;;12.47;100.00;99316.34;4887496;29;20024;-87
2023/03/13 09:50:39;;;;;;;4.97;2.08;;;;;;;12.60;100.00;99305.28;4887489;29;20157;-87
2023/03/13 09:53:18;;;;;;;8.02;2.67;;;;;;;12.90;100.00;99289.47;4882564;29;20036;-87
2023/03/13 09:55:44;;;;;;;9.30;2.42;;;;;;;12.88;100.00;99280.66;4876166;29;20427;-87
2023/03/13 09:58:18;;;;;;;6.45;2.47;;;;;;;12.90;100.00;99272.59;4891586;29;20028;-87
2023/03/13 10:00:53;;;;;;;13.82;4.28;;;;;;;12.78;100.00;99263.63;4891701;29;20032;-86
2023/03/13 10:03:42;;;;;;;10.98;3.50;;;;;;;12.85;100.00;99257.06;4880898;29;20128;-87
2023/03/13 10:06:18;;;;;;;10.40;3.13;;;;;;;12.78;100.00;99255.19;4887772;29;20412;-87
2023/03/13 10:08:43;;;;;;;11.00;2.97;;;;;;;12.99;100.00;99245.53;4891978;29;20024;-87
2023/03/13 10:11:32;;;;;;;13.43;3.40;;;;;;;12.96;100.00;99259.66;4892082;29;20080;-87
2023/03/13 10:14:26;;;;;;;8.73;2.60;;;;;;;12.91;100.00;99252.53;4900415;29;20033;-86
2023/03/13 10:17:21;;;;;;;7.97;2.33;;;;;;;12.90;100.00;99259.38;4874685;29;20036;-86
2023/03/13 10:19:54;;;;;;;6.70;2.63;;;;;;;12.96;100.00;99265.25;4873351;29;20036;-87
2023/03/13 10:22:25;;;;;;;8.02;3.08;;;;;;;13.02;100.00;99250.25;4889346;29;20024;-87
2023/03/13 10:25:03;;;;;;;7.88;3.28;;;;;;;13.01;100.00;99261.97;4872729;29;20036;-87
2023/03/13 10:27:29;;;;;;;7.80;2.92;;;;;;;13.09;100.00;99252.16;4892991;29;20557;-87
2023/03/13 10:29:54;;;;;;;5.63;2.90;;;;;;;13.08;100.00;99239.31;4883033;29;20489;-87
2023/03/13 10:32:20;;;;;;;10.23;2.65;;;;;;;13.24;100.00;99238.56;4886819;29;20398;-87
2023/03/13 10:34:51;;;;;;;8.50;3.08;;;;;;;13.22;100.00;99226.97;4895379;29;20040;-87
2023/03/13 10:37:21;;;;;;;7.90;3.75;;;;;;;13.32;100.00;99225.16;4893481;29;20056;-86
2023/03/13 10:39:46;;;;;;;8.63;2.55;;;;;;;13.31;100.00;99240.47;4872883;29;20095;-87
2023/03/13 10:42:27;;;;;;;12.55;2.55;;;;;;;13.34;100.00;99228.34;4880166;29;20454;-87
2023/03/13 10:44:58;;;;;;;8.77;2.47;;;;;;;13.41;100.00;99233.81;4890033;29;20036;-86
2023/03/13 10:47:23;;;;;;;7.45;3.55;;;;;;;13.52;100.00;99234.31;4893047;29;20100;-86
2023/03/13 10:49:51;;;;;;;8.45;2.03;;;;;;;13.59;100.00;99222.91;4877743;29;20473;-86
2023/03/13 10:52:40;;;;;;;6.53;1.80;;;;;;;13.68;100.00;99219.50;4897232;29;20037;-86
2023/03/13 10:55:09;;;;;;;6.95;1.83;;;;;;;13.85;100.00;99208.22;4873076;29;20556;-87
2023/03/13 10:57:36;;;;;;;7.18;1.90;;;;;;;13.83;100.00;99222.75;4887229;29;20099;-87
2023/03/13 11:00:41;;;;;;;4.88;2.03;;;;;;;14.06;100.00;99204.06;4878703;29;20059;-86
2023/03/13 11:03:24;;;;;;;7.13;2.58;;;;;;;14.02;100.00;99198.53;4813345;29;20038;-86
2023/03/13 11:05:58;;;;;;;4.90;1.50;;;;;;;13.96;100.00;99197.50;4795448;29;20031;-86
2023/03/13 11:08:26;;;;;;;5.78;1.88;;;;;;;14.00;100.00;99184.13;4852090;29;20507;-87
2023/03/13 11:10:58;;;;;;;8.32;1.70;;;;;;;14.09;100.00;99197.56;4855770;29;20025;-87
2023/03/13 11:13:39;;;;;;;10.45;2.33;;;;;;;14.19;100.00;99196.47;4878452;29;20025;-87
2023/03/13 11:16:13;;;;;;;7.63;1.85;;;;;;;14.01;100.00;99211.00;4872413;29;20041;-87
2023/03/13 11:18:43;;;;;;;5.93;1.73;;;;;;;13.96;100.00;99201.09;4875906;29;20025;-86
2023/03/13 11:21:18;;;;;;;4.63;1.95;;;;;;;14.08;100.00;99202.38;4873449;29;20208;-85
2023/03/13 11:24:02;;;;;;;4.75;2.00;;;;;;;14.16;100.00;99192.50;4875265;29;20021;-87
2023/03/13 11:26:34;;;;;;;6.07;1.65;;;;;;;14.44;100.00;99174.06;4876306;29;20493;-87